Kenai, AK

2:19 PM AKDT on September 29, 2016 (GMT -0800)
McGahan | | Change Station

Elev 159 ft 60.73 °N, 151.30 °W | Updated 12 seconds ago

Clear
Clear
49.4 °F
Feels Like 47 °F
N
6.9
Wind Variable Wind from NNE
Gusts 6.9 mph

Today
High -- | Low -- °F
--% Chance of Precip.
Yesterday
High -- | Low -- °F
Precip. -- in
Pressure 30.58 in
Visibility 10.0 miles
Clouds Clear
Windchill 47 °F
Dew Point 41 °F
Humidity 72%
Rainfall 0.00 in
Snow Depth Not available.
8:08 AM 7:41 PM
Waning Crescent, 1% visible
METAR PAEN 292153Z 02008KT 10SM CLR 11/04 A3057 RMK AO2 SLP353 T01110044 $
Pressure 30.58 in
Visibility 10.0 miles
Clouds Clear
Windchill 47 °F
Dew Point 41 °F
Humidity 72%
Rainfall 0.00 in
Snow Depth Not available.
8:08 AM 7:41 PM
Waning Crescent, 1% visible
METAR PAEN 292153Z 02008KT 10SM CLR 11/04 A3057 RMK AO2 SLP353 T01110044 $

10-Day Weather Forecast

Almanac

Astronomy

Sep. 29, 2016 Rise Set
Actual Time
Civil Twilight
Nautical Twilight
Astronomical Twilight
Moon
Length of Visible Light
Length of Day
Tomorrow will be .
, % of the Moon is Illuminated

Today's Extremes

State Highs State Lows

Community

WunderPhotos

Upload Photos

1,942,587 photos uploaded!

WunderBlog® & News

Nearby

Air Quality

  Air Quality AQ Index Pollutant
Not available.

Snow Depth

Station Depth Elevation

Earthquake Activity

City Distance Mag. Time & Date
Minimum magnitude displayed is 2.5.

Coastal Water Temperatures

Place Temperature

Stations

Nearby Weather Stations

Station Location Temp. Windchill Dew Point Humidity Wind Precip. Elev Updated Type
                   

Watches & Warnings

There are currently no watches in effect.